Time;durP1;ratioP1;P1;durP2;ratioP2;P2;SDS_P1;SDS_P2;PMS_P1;PMS_P2;Temp;Humidity;BMP_temperature;BMP_pressure;BME280_temperature;BME280_humidity;BME280_pressure;Samples;Min_cycle;Max_cycle;Signal;HPM_P1;HPM_P2
2022/11/11 00:00:32;;;;;;;5.57;4.27;;;;;;;5.46;100.00;101737.91;5065674;28;20282;-75
2022/11/11 00:02:58;;;;;;;4.93;4.43;;;;;;;5.41;100.00;101739.47;5062972;28;20243;-76
2022/11/11 00:05:24;;;;;;;4.67;4.33;;;;;;;5.36;100.00;101744.44;5065200;28;20180;-75
2022/11/11 00:07:58;;;;;;;4.80;4.50;;;;;;;5.32;100.00;101746.00;5059533;28;20236;-74
2022/11/11 00:10:28;;;;;;;4.73;4.23;;;;;;;5.30;100.00;101742.50;5065535;28;20639;-75
2022/11/11 00:13:02;;;;;;;4.53;4.20;;;;;;;5.27;100.00;101744.97;5064509;28;20178;-74
2022/11/11 00:15:28;;;;;;;5.37;4.20;;;;;;;5.24;100.00;101741.41;5069769;28;20690;-75
2022/11/11 00:26:11;;;;;;;4.00;3.70;;;;;;;5.04;100.00;101736.44;5063619;28;20244;-78
2022/11/11 00:28:36;;;;;;;4.00;3.67;;;;;;;4.99;100.00;101725.97;5064490;28;20185;-73
2022/11/11 00:31:10;;;;;;;4.10;3.80;;;;;;;4.96;100.00;101728.44;5066185;28;20207;-74
2022/11/11 00:33:36;;;;;;;4.30;4.00;;;;;;;4.92;100.00;101741.09;5059921;28;20221;-74
2022/11/11 00:36:02;;;;;;;4.80;4.30;;;;;;;4.86;100.00;101745.19;5065710;28;20277;-77
2022/11/11 00:38:46;;;;;;;4.73;4.33;;;;;;;4.83;100.00;101744.19;5066431;28;20185;-74
2022/11/11 00:41:13;;;;;;;4.00;3.70;;;;;;;4.80;100.00;101744.94;5067935;28;20296;-75
2022/11/11 00:43:39;;;;;;;4.33;4.03;;;;;;;4.77;100.00;101743.97;5065788;28;20205;-75
2022/11/11 00:51:32;;;;;;;4.47;4.17;;;;;;;4.59;100.00;101742.41;5060081;28;20244;-74
2022/11/11 00:53:58;;;;;;;4.20;3.90;;;;;;;4.55;100.00;101753.38;5072362;28;20211;-76
2022/11/11 00:56:23;;;;;;;3.83;3.53;;;;;;;4.51;100.00;101752.38;5066159;28;20187;-74
2022/11/11 00:58:49;;;;;;;4.60;4.20;;;;;;;4.51;100.00;101748.94;5059234;28;20688;-75
2022/11/11 01:01:15;;;;;;;4.80;4.40;;;;;;;4.51;100.00;101756.66;5069737;28;20213;-76
2022/11/11 01:03:40;;;;;;;4.70;4.30;;;;;;;4.49;100.00;101768.53;5060782;28;20195;-74
2022/11/11 01:06:06;;;;;;;4.30;4.00;;;;;;;4.45;100.00;101756.38;5057689;28;20256;-74
2022/11/11 01:08:31;;;;;;;4.20;3.90;;;;;;;4.40;100.00;101761.34;5062999;28;20578;-75
2022/11/11 01:10:57;;;;;;;4.67;4.27;;;;;;;4.37;100.00;101769.78;5067337;28;20206;-77
2022/11/11 01:13:28;;;;;;;4.13;3.73;;;;;;;4.37;100.00;101774.91;5069390;28;20177;-74
2022/11/11 01:16:05;;;;;;;3.90;3.60;;;;;;;4.37;100.00;101771.47;5067688;28;20631;-77
2022/11/11 01:18:31;;;;;;;3.83;3.47;;;;;;;4.36;100.00;101775.72;5080173;28;20422;-79
2022/11/11 01:21:00;;;;;;;3.83;3.53;;;;;;;4.39;100.00;101783.50;5084799;28;20202;-78
2022/11/11 01:23:26;;;;;;;4.13;3.80;;;;;;;4.44;100.00;101781.16;5071353;28;20187;-74
2022/11/11 01:25:52;;;;;;;5.00;3.80;;;;;;;4.52;100.00;101786.59;5067240;28;20206;-75
2022/11/11 01:28:17;;;;;;;5.83;3.63;;;;;;;4.57;100.00;101783.41;5067558;28;20204;-74
2022/11/11 01:30:43;;;;;;;3.67;3.37;;;;;;;4.64;100.00;101778.50;5065101;28;20230;-74
2022/11/11 01:33:09;;;;;;;6.40;3.73;;;;;;;4.71;100.00;101777.94;5062162;28;20674;-74
2022/11/11 01:35:39;;;;;;;4.83;3.73;;;;;;;4.77;100.00;101778.16;5065525;28;20186;-74
2022/11/11 01:38:06;;;;;;;8.80;4.10;;;;;;;4.81;100.00;101780.03;5071659;28;20284;-74
2022/11/11 01:40:39;;;;;;;4.43;4.03;;;;;;;4.87;100.00;101776.81;5070108;28;20227;-75
2022/11/11 01:43:04;;;;;;;3.93;3.50;;;;;;;4.92;100.00;101766.72;5064200;28;20203;-74
2022/11/11 01:46:00;;;;;;;4.30;3.90;;;;;;;4.95;100.00;101764.28;5059944;28;20178;-74
2022/11/11 01:51:19;;;;;;;5.77;3.93;;;;;;;4.93;100.00;101776.19;5060272;28;20223;-75
2022/11/11 01:53:48;;;;;;;7.70;4.47;;;;;;;4.90;100.00;101770.97;5063373;28;20181;-74
2022/11/11 01:56:13;;;;;;;5.70;4.23;;;;;;;4.81;100.00;101780.03;5064926;28;20193;-74
2022/11/11 01:58:39;;;;;;;5.70;4.60;;;;;;;4.72;100.00;101777.13;5065968;28;20575;-78
2022/11/11 02:01:05;;;;;;;8.40;4.57;;;;;;;4.64;100.00;101787.09;5062020;28;20382;-74
2022/11/11 02:03:37;;;;;;;5.10;4.17;;;;;;;4.55;100.00;101787.59;5057363;28;20289;-75
2022/11/11 02:06:02;;;;;;;4.67;3.90;;;;;;;4.46;100.00;101789.78;5063454;28;20253;-74
2022/11/11 02:08:33;;;;;;;4.00;3.60;;;;;;;4.39;100.00;101787.78;5064309;28;20186;-75
2022/11/11 02:11:09;;;;;;;4.00;3.70;;;;;;;4.31;100.00;101784.91;5060725;28;20209;-74
2022/11/11 02:16:23;;;;;;;4.10;3.70;;;;;;;4.15;100.00;101777.41;5069398;28;20195;-76
2022/11/11 02:18:48;;;;;;;4.30;4.00;;;;;;;4.11;100.00;101784.09;5061347;28;20193;-76
2022/11/11 02:21:24;;;;;;;4.10;3.70;;;;;;;4.09;100.00;101778.88;5067245;28;20281;-74
2022/11/11 02:24:01;;;;;;;3.97;3.60;;;;;;;4.10;100.00;101777.22;5077037;28;20180;-73
2022/11/11 02:26:31;;;;;;;5.30;3.90;;;;;;;4.10;100.00;101783.19;5071157;28;20224;-75
2022/11/11 02:28:56;;;;;;;5.57;4.00;;;;;;;4.10;100.00;101779.78;5068234;28;20185;-73
2022/11/11 02:31:27;;;;;;;3.93;3.53;;;;;;;4.11;100.00;101782.38;5075115;28;20285;-76
2022/11/11 02:33:53;;;;;;;4.40;4.00;;;;;;;4.15;100.00;101782.53;5071030;28;20190;-76
2022/11/11 02:36:18;;;;;;;3.83;3.53;;;;;;;4.19;100.00;101789.53;5054999;28;20178;-74
2022/11/11 02:38:44;;;;;;;4.00;3.70;;;;;;;4.23;100.00;101779.47;5089721;28;20185;-78
2022/11/11 02:43:53;;;;;;;3.83;3.43;;;;;;;4.30;100.00;101769.47;5085276;28;20212;-79
2022/11/11 02:46:18;;;;;;;3.80;3.50;;;;;;;4.30;100.00;101765.22;5084267;28;20181;-76
2022/11/11 02:48:43;;;;;;;3.60;3.30;;;;;;;4.31;100.00;101764.41;5090063;28;20174;-79
2022/11/11 02:51:09;;;;;;;4.03;3.60;;;;;;;4.33;100.00;101764.44;5086591;28;20189;-79
2022/11/11 02:53:34;;;;;;;3.83;3.50;;;;;;;4.30;100.00;101767.78;5077398;28;20232;-78
2022/11/11 02:56:00;;;;;;;4.63;3.83;;;;;;;4.26;100.00;101763.31;5070529;28;20184;-75
2022/11/11 02:58:25;;;;;;;4.03;3.47;;;;;;;4.18;100.00;101770.69;5060291;28;20573;-75
2022/11/11 03:00:50;;;;;;;4.13;3.83;;;;;;;4.10;100.00;101760.13;5059738;28;20578;-75
2022/11/11 03:03:16;;;;;;;3.87;3.57;;;;;;;4.04;100.00;101761.56;5064472;28;20226;-79
2022/11/11 03:05:41;;;;;;;3.80;3.50;;;;;;;3.96;100.00;101766.38;5072057;28;20215;-75
2022/11/11 03:08:06;;;;;;;3.67;3.30;;;;;;;3.88;100.00;101776.28;5066325;28;20624;-75
2022/11/11 03:10:32;;;;;;;3.40;3.10;;;;;;;3.84;100.00;101776.09;5066433;28;20201;-76
2022/11/11 03:12:59;;;;;;;4.17;3.77;;;;;;;3.79;100.00;101776.78;5058408;28;20183;-75
2022/11/11 03:15:25;;;;;;;3.80;3.40;;;;;;;3.73;100.00;101771.41;5069352;28;20264;-74
2022/11/11 03:17:50;;;;;;;3.73;3.43;;;;;;;3.70;100.00;101771.28;5080433;28;20265;-74
2022/11/11 03:23:03;;;;;;;4.93;3.77;;;;;;;3.63;100.00;101776.94;5068350;28;20347;-76
2022/11/11 03:25:37;;;;;;;3.80;3.40;;;;;;;3.59;100.00;101773.34;5063384;28;20194;-75
2022/11/11 03:28:17;;;;;;;4.23;3.83;;;;;;;3.57;100.00;101769.00;5067169;28;20193;-77
2022/11/11 03:30:45;;;;;;;3.33;3.07;;;;;;;3.55;100.00;101771.50;5068558;28;20206;-77
2022/11/11 03:33:11;;;;;;;4.23;3.83;;;;;;;3.55;100.00;101778.28;5065826;28;20193;-74
2022/11/11 03:35:37;;;;;;;4.40;4.10;;;;;;;3.53;100.00;101770.53;5061832;28;20711;-77
2022/11/11 03:38:14;;;;;;;5.50;4.10;;;;;;;3.53;100.00;101775.66;5060138;28;20760;-75
2022/11/11 03:40:44;;;;;;;4.70;3.90;;;;;;;3.53;100.00;101783.34;5068570;28;20575;-75
2022/11/11 03:43:10;;;;;;;5.17;4.77;;;;;;;3.55;100.00;101780.84;5064485;28;20231;-76
2022/11/11 03:45:36;;;;;;;5.13;4.63;;;;;;;3.58;100.00;101793.78;5067084;28;20219;-76
2022/11/11 03:48:01;;;;;;;6.27;4.83;;;;;;;3.64;100.00;101806.84;5075368;28;20650;-75
2022/11/11 03:50:26;;;;;;;5.97;4.67;;;;;;;3.70;100.00;101811.38;5074050;28;20213;-76
2022/11/11 03:52:52;;;;;;;5.40;4.90;;;;;;;3.77;100.00;101815.94;5062384;28;20732;-78
2022/11/11 03:55:17;;;;;;;5.57;4.90;;;;;;;3.81;100.00;101817.84;5071754;28;20263;-74
2022/11/11 03:57:44;;;;;;;6.00;4.97;;;;;;;3.86;100.00;101825.72;5060990;28;20217;-79
2022/11/11 04:00:15;;;;;;;5.40;4.90;;;;;;;3.92;100.00;101831.13;5066651;28;20190;-74
2022/11/11 04:10:57;;;;;;;5.53;4.30;;;;;;;4.22;100.00;101836.66;5065024;28;20562;-75
2022/11/11 04:16:07;;;;;;;4.97;4.57;;;;;;;4.35;100.00;101842.28;5078881;28;20204;-75
2022/11/11 04:26:58;;;;;;;4.17;3.87;;;;;;;4.52;100.00;101869.50;5066621;28;20265;-76
2022/11/11 04:29:30;;;;;;;4.73;4.43;;;;;;;4.57;100.00;101868.00;5065439;28;20268;-76
2022/11/11 04:35:06;;;;;;;4.80;4.40;;;;;;;4.66;100.00;101861.50;5029326;28;20199;-75
2022/11/11 04:37:34;;;;;;;4.37;4.03;;;;;;;4.69;100.00;101874.44;5027308;28;20191;-75
2022/11/11 04:42:43;;;;;;;4.60;4.20;;;;;;;4.67;100.00;101864.16;5058610;28;20201;-76
2022/11/11 04:47:55;;;;;;;4.60;4.10;;;;;;;4.77;100.00;101864.50;5057393;28;20295;-79
2022/11/11 04:50:22;;;;;;;4.40;4.10;;;;;;;4.83;100.00;101875.03;5060615;28;20214;-74
2022/11/11 04:52:47;;;;;;;4.50;4.20;;;;;;;4.87;100.00;101879.44;5058768;28;20305;-73
2022/11/11 04:57:57;;;;;;;4.30;4.00;;;;;;;4.96;100.00;101884.06;5068743;28;20188;-74
2022/11/11 05:00:23;;;;;;;5.00;4.60;;;;;;;5.00;100.00;101883.38;5069088;28;20206;-76
2022/11/11 05:11:04;;;;;;;6.60;4.57;;;;;;;5.18;100.00;101898.63;5066506;28;20323;-75
2022/11/11 05:21:51;;;;;;;4.13;3.83;;;;;;;5.27;100.00;101906.69;5063009;28;20225;-79
2022/11/11 05:27:01;;;;;;;4.00;3.60;;;;;;;5.30;100.00;101916.19;5063896;28;20326;-75
2022/11/11 05:29:26;;;;;;;3.37;3.17;;;;;;;5.32;100.00;101914.56;5070738;28;20231;-75
2022/11/11 05:31:52;;;;;;;3.63;3.43;;;;;;;5.34;100.00;101924.06;5060523;28;20206;-78
2022/11/11 05:34:17;;;;;;;4.13;3.80;;;;;;;5.38;100.00;101926.78;5060084;28;20179;-76
2022/11/11 05:36:42;;;;;;;4.20;3.90;;;;;;;5.42;100.00;101933.78;5065087;28;20191;-78
2022/11/11 05:39:07;;;;;;;4.10;3.80;;;;;;;5.43;100.00;101938.09;5069147;28;20188;-75
2022/11/11 05:41:33;;;;;;;4.10;3.80;;;;;;;5.42;100.00;101932.06;5073913;28;20213;-77
2022/11/11 05:43:58;;;;;;;3.77;3.37;;;;;;;5.44;100.00;101933.00;5065800;28;20239;-74
2022/11/11 05:46:23;;;;;;;4.00;3.70;;;;;;;5.44;100.00;101935.59;5069160;28;20256;-75
2022/11/11 05:51:33;;;;;;;3.97;3.67;;;;;;;5.51;100.00;101930.69;5073287;28;20268;-78
2022/11/11 05:53:58;;;;;;;3.87;3.57;;;;;;;5.52;100.00;101935.03;5072231;28;20192;-75
2022/11/11 05:56:23;;;;;;;3.67;3.37;;;;;;;5.54;100.00;101944.53;5058935;28;22150;-75
2022/11/11 05:58:49;;;;;;;3.33;3.10;;;;;;;5.56;100.00;101944.56;5058300;28;20213;-75
2022/11/11 06:01:14;;;;;;;3.30;3.00;;;;;;;5.55;100.00;101946.28;5069873;28;20198;-76
2022/11/11 06:03:40;;;;;;;2.90;2.70;;;;;;;5.53;100.00;101942.78;5071905;28;20190;-75
2022/11/11 06:06:05;;;;;;;3.57;3.27;;;;;;;5.52;100.00;101942.72;5066199;28;20288;-74
2022/11/11 06:08:30;;;;;;;3.07;2.77;;;;;;;5.52;100.00;101935.88;5069354;28;20187;-75
2022/11/11 06:10:57;;;;;;;3.10;2.80;;;;;;;5.50;100.00;101934.94;5067398;28;20666;-78
2022/11/11 06:13:22;;;;;;;3.07;2.77;;;;;;;5.49;100.00;101936.66;5078414;28;20230;-75
2022/11/11 06:15:48;;;;;;;3.20;3.00;;;;;;;5.51;100.00;101930.69;5076310;28;20556;-78
2022/11/11 06:18:13;;;;;;;3.43;3.13;;;;;;;5.52;100.00;101935.88;5060732;28;20629;-75
2022/11/11 06:20:38;;;;;;;3.60;3.30;;;;;;;5.54;100.00;101938.50;5063211;28;20202;-79
2022/11/11 06:23:04;;;;;;;3.60;3.30;;;;;;;5.54;100.00;101941.97;5067823;28;20191;-77
2022/11/11 06:28:17;;;;;;;4.37;4.07;;;;;;;5.54;100.00;101951.34;5066840;28;20607;-76
2022/11/11 06:30:43;;;;;;;4.00;3.60;;;;;;;5.53;100.00;101949.56;5072722;28;20213;-76
2022/11/11 06:33:08;;;;;;;4.10;3.70;;;;;;;5.51;100.00;101944.41;5068803;28;20226;-76
2022/11/11 06:35:35;;;;;;;3.90;3.60;;;;;;;5.52;100.00;101942.72;5059270;28;20211;-76
2022/11/11 06:38:05;;;;;;;4.23;3.93;;;;;;;5.51;100.00;101940.97;5061454;28;20195;-75
2022/11/11 06:40:31;;;;;;;4.03;3.73;;;;;;;5.52;100.00;101950.44;5064785;28;20591;-76
2022/11/11 06:42:58;;;;;;;4.57;4.17;;;;;;;5.53;100.00;101952.16;5064588;28;20189;-74
2022/11/11 06:45:24;;;;;;;3.90;3.60;;;;;;;5.53;100.00;101958.19;5068176;28;20722;-75
2022/11/11 06:47:49;;;;;;;4.10;3.80;;;;;;;5.54;100.00;101959.94;5063007;28;20266;-75
2022/11/11 06:50:15;;;;;;;3.90;3.60;;;;;;;5.56;100.00;101966.00;5062039;28;20189;-77
2022/11/11 06:52:40;;;;;;;3.70;3.50;;;;;;;5.57;100.00;101966.88;5060264;28;20636;-75
2022/11/11 06:55:06;;;;;;;4.20;3.90;;;;;;;5.60;100.00;101962.72;5065964;28;20192;-74
2022/11/11 06:57:32;;;;;;;4.40;4.00;;;;;;;5.61;100.00;101968.75;5062538;28;20863;-74
2022/11/11 06:59:57;;;;;;;3.80;3.53;;;;;;;5.61;100.00;101963.59;5056759;28;20195;-75
2022/11/11 07:02:23;;;;;;;3.93;3.63;;;;;;;5.60;100.00;101959.28;5059060;28;20196;-77
2022/11/11 07:04:48;;;;;;;3.77;3.57;;;;;;;5.60;100.00;101962.72;5070876;28;20181;-74
2022/11/11 07:07:13;;;;;;;4.10;3.77;;;;;;;5.58;100.00;101964.38;5061804;28;20585;-77
2022/11/11 07:09:39;;;;;;;3.87;3.53;;;;;;;5.58;100.00;101972.09;5060745;28;20322;-76
2022/11/11 07:12:05;;;;;;;4.10;3.80;;;;;;;5.57;100.00;101972.00;5060828;28;20264;-74
2022/11/11 07:14:31;;;;;;;4.13;3.83;;;;;;;5.57;100.00;101972.91;5064834;28;20276;-77
2022/11/11 07:16:57;;;;;;;4.60;4.23;;;;;;;5.57;100.00;101972.00;5065104;28;20181;-75
2022/11/11 07:19:22;;;;;;;4.13;3.83;;;;;;;5.58;100.00;101966.06;5050417;28;20180;-76
2022/11/11 07:21:48;;;;;;;4.27;3.97;;;;;;;5.61;100.00;101961.91;5057796;28;20763;-75
2022/11/11 07:24:13;;;;;;;4.50;4.10;;;;;;;5.66;100.00;101969.81;5064899;28;20178;-73
2022/11/11 07:26:39;;;;;;;4.30;4.00;;;;;;;5.70;100.00;101969.09;5061629;28;20205;-77
2022/11/11 07:29:04;;;;;;;4.10;3.80;;;;;;;5.78;100.00;101971.94;5064939;28;20216;-78
2022/11/11 07:31:29;;;;;;;4.20;3.90;;;;;;;5.84;100.00;101973.88;5066197;28;20226;-77
2022/11/11 07:33:55;;;;;;;3.90;3.60;;;;;;;5.87;100.00;101977.47;5064789;28;20188;-78
2022/11/11 07:36:20;;;;;;;3.90;3.60;;;;;;;5.92;100.00;101973.34;5062460;28;20277;-78
2022/11/11 07:38:46;;;;;;;4.27;3.87;;;;;;;5.98;100.00;101967.56;5059639;28;20204;-77
2022/11/11 07:41:11;;;;;;;4.23;3.93;;;;;;;6.04;100.00;101972.09;5069705;28;20401;-79
2022/11/11 07:43:36;;;;;;;6.00;5.50;;;;;;;6.10;100.00;101969.75;5066931;28;20299;-78
2022/11/11 07:46:02;;;;;;;5.67;5.17;;;;;;;6.13;100.00;101972.44;5069067;28;20287;-75
2022/11/11 07:48:27;;;;;;;5.30;4.80;;;;;;;6.16;100.00;101975.13;5065646;28;20198;-77
2022/11/11 07:50:55;;;;;;;4.57;4.17;;;;;;;6.20;100.00;101984.66;5068880;28;20293;-76
2022/11/11 07:53:22;;;;;;;5.20;4.80;;;;;;;6.24;100.00;101976.25;5063241;28;20214;-78
2022/11/11 07:55:47;;;;;;;4.23;3.93;;;;;;;6.28;100.00;101984.09;5068188;28;20311;-75
2022/11/11 07:58:13;;;;;;;4.63;4.23;;;;;;;6.30;100.00;101974.75;5074994;28;20203;-76
2022/11/11 08:00:38;;;;;;;4.10;3.80;;;;;;;6.32;100.00;101978.25;5066151;28;20213;-74
2022/11/11 08:03:04;;;;;;;4.33;4.03;;;;;;;6.35;100.00;101978.34;5067205;28;20808;-77
2022/11/11 08:05:29;;;;;;;4.10;3.80;;;;;;;6.37;100.00;101980.16;5067129;28;20279;-75
2022/11/11 08:07:55;;;;;;;3.90;3.60;;;;;;;6.40;100.00;101982.84;5074437;28;20212;-75
2022/11/11 08:10:20;;;;;;;4.23;3.93;;;;;;;6.47;100.00;101989.06;5065124;28;20243;-76
2022/11/11 08:15:35;;;;;;;4.10;3.80;;;;;;;6.59;100.00;101987.75;5064540;28;20290;-76
2022/11/11 08:18:01;;;;;;;4.07;3.77;;;;;;;6.64;100.00;101987.09;5064985;28;20762;-77
2022/11/11 08:20:26;;;;;;;4.33;3.93;;;;;;;6.69;100.00;101988.13;5066718;28;20233;-76
2022/11/11 08:22:54;;;;;;;4.13;3.83;;;;;;;6.68;100.00;101988.94;5070840;28;20656;-73
2022/11/11 08:25:19;;;;;;;6.43;4.50;;;;;;;6.68;100.00;101996.66;5069813;28;20186;-76
2022/11/11 08:27:44;;;;;;;4.70;4.40;;;;;;;6.70;100.00;101989.88;5066495;28;20219;-74
2022/11/11 08:30:10;;;;;;;4.63;4.23;;;;;;;6.71;100.00;101996.78;5059951;28;20236;-76
2022/11/11 08:32:35;;;;;;;4.70;4.40;;;;;;;6.67;100.00;101992.34;5060502;28;20184;-76
2022/11/11 08:35:01;;;;;;;4.73;4.23;;;;;;;6.68;100.00;101991.53;5059340;28;20226;-77
2022/11/11 08:37:27;;;;;;;4.70;4.37;;;;;;;6.75;100.00;101986.56;5067590;28;20189;-75
2022/11/11 08:39:53;;;;;;;5.53;5.03;;;;;;;6.80;100.00;101996.22;5068329;28;20269;-76
2022/11/11 08:42:18;;;;;;;5.40;4.87;;;;;;;6.84;100.00;101987.75;5075324;28;20294;-74
2022/11/11 08:44:44;;;;;;;5.83;5.33;;;;;;;6.94;100.00;101994.09;5068169;28;20201;-76
2022/11/11 08:47:09;;;;;;;6.57;6.07;;;;;;;7.02;100.00;101984.06;5063786;28;20247;-77
2022/11/11 08:49:34;;;;;;;6.87;6.23;;;;;;;7.08;100.00;101983.38;5064358;28;20196;-77
2022/11/11 08:52:00;;;;;;;6.90;6.40;;;;;;;7.13;100.00;101989.56;5062457;28;20205;-77
2022/11/11 08:54:26;;;;;;;7.43;6.83;;;;;;;7.16;100.00;101989.66;5064367;28;20221;-77
2022/11/11 08:56:51;;;;;;;7.37;6.77;;;;;;;7.19;100.00;101988.88;5056951;28;20631;-76
2022/11/11 08:59:16;;;;;;;7.20;6.60;;;;;;;7.24;100.00;101993.34;5064314;28;20673;-76
2022/11/11 09:01:42;;;;;;;7.67;6.97;;;;;;;7.29;100.00;101996.97;5055032;28;20211;-76
2022/11/11 09:04:07;;;;;;;7.63;7.03;;;;;;;7.36;100.00;101992.00;5066940;28;20258;-74
2022/11/11 09:06:32;;;;;;;6.80;6.20;;;;;;;7.42;100.00;101992.19;5062459;28;20282;-77
2022/11/11 09:08:58;;;;;;;7.17;6.60;;;;;;;7.52;100.00;101988.22;5064325;28;20217;-76
2022/11/11 09:11:23;;;;;;;6.83;6.23;;;;;;;7.63;100.00;101990.31;5063263;28;20659;-75
2022/11/11 09:13:48;;;;;;;7.10;6.50;;;;;;;7.71;100.00;101990.53;5064996;28;20777;-75
2022/11/11 09:16:14;;;;;;;6.73;6.13;;;;;;;7.82;100.00;101987.41;5066960;28;20188;-74
2022/11/11 09:18:39;;;;;;;6.33;5.83;;;;;;;7.97;100.00;101992.09;5073782;28;20182;-78
2022/11/11 09:21:05;;;;;;;5.87;5.37;;;;;;;8.12;100.00;101989.13;5060431;28;20588;-76
2022/11/11 09:23:31;;;;;;;5.43;4.93;;;;;;;8.26;100.00;101990.38;5066637;28;20556;-75
2022/11/11 09:26:02;;;;;;;4.87;4.47;;;;;;;8.39;100.00;101989.03;5053399;28;20189;-75
2022/11/11 09:28:28;;;;;;;4.53;4.13;;;;;;;8.51;100.00;101986.81;5051157;28;20194;-77
2022/11/11 09:30:53;;;;;;;5.20;4.80;;;;;;;8.66;100.00;101990.63;5073505;28;20206;-76
2022/11/11 09:33:19;;;;;;;5.03;4.63;;;;;;;8.78;100.00;101992.63;5062560;28;20193;-76
2022/11/11 09:35:44;;;;;;;5.20;4.80;;;;;;;8.89;100.00;101992.91;5062634;28;20178;-76
2022/11/11 09:38:09;;;;;;;4.90;4.50;;;;;;;8.99;100.00;101984.59;5067949;28;20600;-78
2022/11/11 09:41:10;;;;;;;5.27;4.87;;;;;;;9.08;100.00;101984.81;5064410;28;20206;-74
2022/11/11 09:43:55;;;;;;;4.80;4.40;;;;;;;9.20;100.00;101989.41;5055156;28;20186;-75
2022/11/11 09:46:30;;;;;;;5.57;5.07;;;;;;;9.28;100.00;101993.03;5063460;28;20688;-77
2022/11/11 09:49:22;;;;;;;5.40;4.97;;;;;;;9.35;100.00;101991.47;5058600;28;20244;-74
2022/11/11 09:52:19;;;;;;;7.30;6.80;;;;;;;9.44;100.00;101986.53;5056772;28;20225;-74
2022/11/11 09:54:51;;;;;;;5.77;5.30;;;;;;;9.59;100.00;101979.97;5066580;28;20181;-74
2022/11/11 09:58:05;;;;;;;5.57;5.17;;;;;;;9.66;100.00;101975.81;5102288;28;20174;-73
2022/11/11 10:00:37;;;;;;;6.37;5.77;;;;;;;9.62;100.00;101980.00;5052017;28;20256;-77
2022/11/11 10:03:21;;;;;;;5.60;5.20;;;;;;;9.63;100.00;101984.34;5058188;28;20182;-76
2022/11/11 10:06:21;;;;;;;5.20;4.70;;;;;;;9.71;100.00;101976.75;5050565;28;20186;-75
2022/11/11 10:09:16;;;;;;;4.67;4.27;;;;;;;9.72;100.00;101970.75;5069645;28;20194;-76
2022/11/11 10:11:56;;;;;;;4.50;4.20;;;;;;;9.71;100.00;101967.31;5056788;28;20220;-77
2022/11/11 10:14:21;;;;;;;4.53;4.23;;;;;;;9.74;100.00;101977.72;5064018;28;20680;-76
2022/11/11 10:17:15;;;;;;;5.03;4.63;;;;;;;9.79;100.00;101979.50;5066291;28;20187;-76
2022/11/11 10:19:52;;;;;;;4.90;4.50;;;;;;;9.76;100.00;101983.75;5058354;28;20545;-76
2022/11/11 10:22:21;;;;;;;5.10;4.70;;;;;;;9.70;100.00;101977.59;5060276;28;20217;-75
2022/11/11 10:25:06;;;;;;;6.03;5.53;;;;;;;9.67;100.00;101978.41;5059951;28;20190;-74
2022/11/11 10:27:33;;;;;;;6.07;5.57;;;;;;;9.61;100.00;101980.84;5064056;28;20222;-78
2022/11/11 10:30:06;;;;;;;5.03;4.63;;;;;;;9.61;100.00;101975.66;5063807;28;20239;-77
2022/11/11 10:32:33;;;;;;;5.50;5.10;;;;;;;9.60;100.00;101982.56;5054821;28;20214;-76
2022/11/11 10:35:16;;;;;;;5.93;5.43;;;;;;;9.59;100.00;101983.41;5060678;28;20274;-77
2022/11/11 10:37:42;;;;;;;7.17;6.57;;;;;;;9.53;100.00;101991.00;5060170;28;20205;-74
2022/11/11 10:40:28;;;;;;;6.13;5.63;;;;;;;9.55;100.00;101985.88;5059791;28;20533;-77
2022/11/11 10:42:53;;;;;;;6.20;5.47;;;;;;;9.52;100.00;101980.66;5052574;28;20185;-76
2022/11/11 10:45:25;;;;;;;6.90;6.40;;;;;;;9.46;100.00;101981.38;5054086;28;20177;-76
2022/11/11 10:48:14;;;;;;;6.27;5.77;;;;;;;9.33;100.00;101971.59;5058483;28;20203;-77
2022/11/11 10:50:55;;;;;;;6.50;6.00;;;;;;;9.27;100.00;101977.50;5054862;28;20206;-74
2022/11/11 10:53:39;;;;;;;6.93;6.33;;;;;;;9.21;100.00;101980.81;5059613;28;20185;-77
2022/11/11 10:56:07;;;;;;;6.00;5.50;;;;;;;9.21;100.00;101983.41;5053706;28;20698;-77
2022/11/11 10:58:40;;;;;;;6.03;5.47;;;;;;;9.30;100.00;101975.84;5052554;28;20297;-77
2022/11/11 11:01:11;;;;;;;5.83;5.33;;;;;;;9.37;100.00;101976.00;5062978;28;20211;-77
2022/11/11 11:03:41;;;;;;;6.33;5.83;;;;;;;9.42;100.00;101972.69;5054950;28;20186;-77
2022/11/11 11:06:14;;;;;;;6.40;5.90;;;;;;;9.44;100.00;101976.19;5057631;28;20672;-75
2022/11/11 11:08:45;;;;;;;6.33;5.77;;;;;;;9.42;100.00;101982.13;5056789;28;20215;-78
2022/11/11 11:11:34;;;;;;;6.73;6.13;;;;;;;9.33;100.00;101981.94;5051539;28;20213;-76
2022/11/11 11:14:05;;;;;;;7.90;7.23;;;;;;;9.22;100.00;101974.81;5065298;28;20178;-77
2022/11/11 11:16:42;;;;;;;7.00;6.40;;;;;;;9.27;100.00;101968.03;5048114;28;20593;-74
2022/11/11 11:19:14;;;;;;;6.60;6.00;;;;;;;9.40;100.00;101966.63;5060665;28;20189;-77
2022/11/11 11:21:52;;;;;;;6.37;5.77;;;;;;;9.48;100.00;101979.72;5060998;28;20198;-77
2022/11/11 11:24:28;;;;;;;6.43;5.93;;;;;;;9.61;100.00;101966.22;5060227;28;20181;-76
2022/11/11 11:26:56;;;;;;;5.63;5.13;;;;;;;9.76;100.00;101957.91;5066049;28;20202;-74
2022/11/11 11:29:33;;;;;;;5.83;5.33;;;;;;;9.87;100.00;101952.97;5060746;28;20240;-74
2022/11/11 11:32:26;;;;;;;5.50;5.10;;;;;;;9.99;100.00;101952.34;5066184;28;20601;-76
2022/11/11 11:34:53;;;;;;;5.67;5.27;;;;;;;10.10;100.00;101947.41;5056741;28;20193;-77
2022/11/11 11:37:21;;;;;;;5.13;4.73;;;;;;;10.13;100.00;101933.66;5061700;28;20658;-76
2022/11/11 11:39:48;;;;;;;6.07;5.57;;;;;;;10.09;100.00;101935.31;5060327;28;20186;-75
2022/11/11 11:42:34;;;;;;;5.30;4.90;;;;;;;9.97;100.00;101940.25;5061293;28;20240;-77
2022/11/11 11:45:14;;;;;;;5.53;5.13;;;;;;;9.89;100.00;101932.34;5067599;28;20182;-77
2022/11/11 11:47:42;;;;;;;5.30;4.80;;;;;;;9.86;100.00;101940.03;5059655;28;20198;-76
2022/11/11 11:50:30;;;;;;;5.60;5.10;;;;;;;9.85;100.00;101922.75;5062133;28;20202;-75
2022/11/11 11:53:02;;;;;;;4.93;4.50;;;;;;;9.85;100.00;101918.44;5063900;28;20183;-77
2022/11/11 11:55:36;;;;;;;5.87;5.37;;;;;;;9.85;100.00;101926.19;5062548;28;20201;-77
2022/11/11 11:58:22;;;;;;;5.77;5.27;;;;;;;9.79;100.00;101927.78;5065720;28;20187;-77
2022/11/11 12:01:14;;;;;;;6.17;5.67;;;;;;;9.75;100.00;101920.00;5053741;28;20260;-77
2022/11/11 12:04:11;;;;;;;5.50;5.00;;;;;;;9.74;100.00;101923.41;5026796;28;20251;-76
2022/11/11 12:06:49;;;;;;;5.40;5.00;;;;;;;9.71;100.00;101920.75;5055295;28;20265;-75
2022/11/11 12:09:18;;;;;;;6.67;6.07;;;;;;;9.67;100.00;101925.84;5060439;28;20181;-74
2022/11/11 12:11:46;;;;;;;5.67;5.17;;;;;;;9.63;100.00;101929.19;5061656;28;20198;-76
2022/11/11 12:14:26;;;;;;;5.33;4.93;;;;;;;9.68;100.00;101925.00;5062426;28;20183;-77
2022/11/11 12:17:09;;;;;;;5.83;5.43;;;;;;;9.76;100.00;101926.03;5058581;28;20182;-76
2022/11/11 12:19:46;;;;;;;6.17;5.67;;;;;;;9.84;100.00;101936.53;5058695;28;20215;-78
2022/11/11 12:22:53;;;;;;;6.33;5.70;;;;;;;9.86;100.00;101929.69;5060729;28;20239;-75
2022/11/11 12:25:35;;;;;;;6.50;6.00;;;;;;;9.82;100.00;101930.44;5046622;28;20240;-77
2022/11/11 12:28:10;;;;;;;7.33;6.70;;;;;;;9.73;100.00;101934.59;5063418;28;20199;-77
2022/11/11 12:30:45;;;;;;;7.30;6.70;;;;;;;9.70;100.00;101934.53;5065113;28;20205;-73
2022/11/11 12:33:39;;;;;;;7.23;6.63;;;;;;;9.70;100.00;101938.81;5067697;28;20187;-76
2022/11/11 12:36:26;;;;;;;7.23;6.70;;;;;;;9.67;100.00;101931.00;5068156;28;20182;-75
2022/11/11 12:38:59;;;;;;;7.60;7.00;;;;;;;9.63;100.00;101930.06;5065678;28;20187;-75
2022/11/11 12:41:36;;;;;;;7.50;6.90;;;;;;;9.65;100.00;101928.38;5069658;28;20300;-74
2022/11/11 12:44:13;;;;;;;7.57;7.07;;;;;;;9.69;100.00;101931.91;5060189;28;20718;-74
2022/11/11 12:46:47;;;;;;;8.30;7.63;;;;;;;9.68;100.00;101927.59;5071246;28;20281;-77
2022/11/11 12:49:27;;;;;;;7.57;6.97;;;;;;;9.68;100.00;101923.28;5066370;28;20201;-78
2022/11/11 12:52:02;;;;;;;7.50;6.90;;;;;;;9.76;100.00;101924.28;5062301;28;20275;-74
2022/11/11 12:54:45;;;;;;;7.23;6.63;;;;;;;9.84;100.00;101921.00;5070360;28;20189;-74
2022/11/11 12:57:26;;;;;;;7.87;7.27;;;;;;;9.93;100.00;101915.16;5062570;28;20198;-76
2022/11/11 13:00:00;;;;;;;7.97;7.37;;;;;;;9.99;100.00;101921.31;5058715;28;20970;-77